Time;durP1;ratioP1;P1;durP2;ratioP2;P2;SDS_P1;SDS_P2;PMS_P1;PMS_P2;Temp;Humidity;BMP_temperature;BMP_pressure;BME280_temperature;BME280_humidity;BME280_pressure;Samples;Min_cycle;Max_cycle;Signal;HPM_P1;HPM_P2
2022/07/25 00:02:16;;;;;;;2.90;1.90;;;20.90;99.90;;;;;;5073587;28;20211;-80
2022/07/25 00:04:41;;;;;;;3.50;3.20;;;20.90;1.00;;;;;;5073749;28;20219;-81
2022/07/25 00:07:07;;;;;;;5.20;2.93;;;20.80;1.00;;;;;;5073759;28;20595;-81
2022/07/25 00:09:33;;;;;;;2.30;2.07;;;20.80;1.00;;;;;;5073724;28;20172;-80
2022/07/25 00:11:59;;;;;;;5.70;3.30;;;20.70;1.00;;;;;;5073247;28;20248;-81
2022/07/25 00:14:24;;;;;;;3.40;3.10;;;20.70;1.00;;;;;;5073539;28;20501;-81
2022/07/25 00:16:50;;;;;;;3.33;2.53;;;20.70;1.00;;;;;;5073529;28;20536;-80
2022/07/25 00:19:15;;;;;;;3.97;3.20;;;20.70;1.00;;;;;;5073355;28;20166;-79
2022/07/25 00:21:41;;;;;;;3.40;2.30;;;20.70;1.00;;;;;;5073373;28;20215;-80
2022/07/25 00:24:07;;;;;;;3.60;3.30;;;20.60;1.00;;;;;;5073359;28;20215;-79
2022/07/25 00:26:32;;;;;;;3.67;2.47;;;20.60;1.00;;;;;;5072984;28;20565;-79
2022/07/25 00:28:58;;;;;;;3.90;3.03;;;20.50;1.00;;;;;;5073199;28;20743;-80
2022/07/25 00:31:23;;;;;;;3.50;2.47;;;20.50;1.00;;;;;;5073267;28;20259;-81
2022/07/25 00:33:49;;;;;;;3.40;3.10;;;20.50;1.00;;;;;;5073175;28;20280;-82
2022/07/25 00:36:14;;;;;;;3.97;2.70;;;20.40;1.00;;;;;;5073207;28;20184;-79
2022/07/25 00:38:40;;;;;;;3.20;2.90;;;20.40;1.00;;;;;;5073160;28;20711;-81
2022/07/25 00:41:05;;;;;;;2.87;2.27;;;20.40;1.00;;;;;;5072981;28;20586;-80
2022/07/25 00:43:31;;;;;;;4.70;3.53;;;20.40;1.00;;;;;;5072836;28;20197;-80
2022/07/25 00:45:57;;;;;;;4.30;2.87;;;20.30;1.00;;;;;;5071851;28;20663;-80
2022/07/25 00:48:23;;;;;;;3.60;2.60;;;20.30;1.00;;;;;;5071751;28;20174;-80
2022/07/25 00:50:49;;;;;;;3.93;3.53;;;20.20;1.00;;;;;;5073076;28;20404;-81
2022/07/25 00:53:15;;;;;;;3.37;3.00;;;20.20;1.00;;;;;;5071741;28;21109;-81
2022/07/25 00:55:40;;;;;;;4.33;3.07;;;20.10;1.00;;;;;;5072930;28;20196;-82
2022/07/25 00:58:05;;;;;;;2.50;2.10;;;20.10;1.00;;;;;;5072626;28;20929;-81
2022/07/25 01:00:31;;;;;;;3.97;2.63;;;20.00;1.00;;;;;;5072829;28;20177;-82
2022/07/25 01:02:57;;;;;;;4.23;2.67;;;19.90;1.00;;;;;;5072753;28;20240;-81
2022/07/25 01:05:22;;;;;;;4.20;3.10;;;19.90;1.00;;;;;;5072807;28;20179;-82
2022/07/25 01:07:48;;;;;;;3.37;2.37;;;19.70;35.20;;;;;;5071522;28;20188;-81
2022/07/25 01:10:14;;;;;;;4.10;2.90;;;19.60;45.20;;;;;;5072836;28;20184;-81
2022/07/25 01:12:47;;;;;;;3.97;2.23;;;19.60;1.00;;;;;;5072228;28;20440;-81
2022/07/25 01:15:14;;;;;;;3.67;3.27;;;19.60;1.00;;;;;;5072839;28;20263;-82
2022/07/25 01:17:39;;;;;;;3.00;2.40;;;19.60;1.00;;;;;;5072660;28;20952;-81
2022/07/25 01:20:11;;;;;;;4.30;3.13;;;19.70;1.00;;;;;;5072634;28;20419;-80
2022/07/25 01:22:37;;;;;;;4.20;3.00;;;19.70;1.00;;;;;;5072510;28;20700;-82
2022/07/25 01:25:03;;;;;;;7.17;2.80;;;19.60;1.00;;;;;;5072575;28;20501;-81
2022/07/25 01:27:28;;;;;;;3.53;2.77;;;19.70;1.00;;;;;;5072244;28;20511;-82
2022/07/25 01:29:54;;;;;;;3.37;2.50;;;19.80;1.00;;;;;;5072711;28;20169;-82
2022/07/25 01:32:19;;;;;;;4.50;2.83;;;19.80;1.00;;;;;;5074830;28;20184;-82
2022/07/25 01:34:44;;;;;;;4.17;2.63;;;19.90;99.90;;;;;;5076603;28;20188;-81
2022/07/25 01:37:10;;;;;;;2.50;1.80;;;19.90;99.90;;;;;;5076516;28;20233;-80
2022/07/25 01:39:35;;;;;;;3.10;2.23;;;19.90;99.90;;;;;;5076394;28;20266;-81
2022/07/25 01:42:02;;;;;;;3.30;2.47;;;19.80;99.90;;;;;;5076029;28;20214;-82
2022/07/25 01:44:27;;;;;;;4.00;3.20;;;19.80;99.90;;;;;;5076453;28;20180;-81
2022/07/25 01:46:53;;;;;;;4.37;2.70;;;19.70;99.90;;;;;;5076398;28;20418;-82
2022/07/25 01:49:18;;;;;;;3.50;2.57;;;19.70;99.90;;;;;;5076273;28;20322;-81
2022/07/25 01:51:44;;;;;;;2.73;2.33;;;19.70;99.90;;;;;;5074852;28;20175;-82
2022/07/25 01:54:09;;;;;;;3.03;2.50;;;19.70;99.90;;;;;;5076033;28;20229;-83
2022/07/25 01:56:35;;;;;;;3.93;2.33;;;19.70;99.90;;;;;;5074342;28;20183;-82
2022/07/25 01:59:00;;;;;;;3.90;2.50;;;19.70;99.90;;;;;;5076044;28;20245;-82
2022/07/25 02:01:26;;;;;;;2.83;2.50;;;19.70;99.90;;;;;;5074663;28;20206;-83
2022/07/25 02:03:51;;;;;;;3.60;2.10;;;19.60;99.90;;;;;;5074703;28;20175;-81
2022/07/25 02:06:17;;;;;;;4.40;2.40;;;19.60;99.90;;;;;;5074705;28;20175;-81
2022/07/25 02:08:43;;;;;;;2.70;2.23;;;19.50;99.90;;;;;;5074947;28;20631;-82
2022/07/25 02:11:09;;;;;;;4.47;1.87;;;19.40;99.90;;;;;;5076045;28;20432;-81
2022/07/25 02:13:34;;;;;;;3.17;2.00;;;19.50;99.90;;;;;;5076392;28;20160;-81
2022/07/25 02:16:00;;;;;;;2.67;1.80;;;19.50;1.00;;;;;;5077457;28;20218;-81
2022/07/25 02:18:25;;;;;;;3.47;2.53;;;19.60;1.00;;;;;;5076143;28;20504;-80
2022/07/25 02:20:51;;;;;;;8.00;1.83;;;19.50;1.00;;;;;;5075586;28;20171;-81
2022/07/25 02:23:16;;;;;;;3.30;2.40;;;19.50;1.00;;;;;;5075450;28;20224;-81
2022/07/25 02:25:42;;;;;;;5.80;2.53;;;19.50;1.00;;;;;;5075611;28;20270;-80
2022/07/25 02:28:07;;;;;;;2.60;1.63;;;19.60;1.00;;;;;;5075133;28;20255;-81
2022/07/25 02:30:33;;;;;;;2.27;1.27;;;19.60;1.00;;;;;;5075576;28;20215;-80
2022/07/25 02:32:59;;;;;;;2.47;1.90;;;19.60;99.90;;;;;;5075235;28;20183;-81
2022/07/25 02:35:24;;;;;;;2.93;1.93;;;19.70;99.90;;;;;;5074530;28;20190;-80
2022/07/25 02:37:50;;;;;;;4.03;2.47;;;19.70;1.00;;;;;;5073692;28;20201;-79
2022/07/25 02:40:15;;;;;;;1.80;1.10;;;19.70;99.90;;;;;;5073697;28;20179;-79
2022/07/25 02:42:41;;;;;;;1.93;1.27;;;19.70;99.90;;;;;;5074003;28;20238;-80
2022/07/25 02:45:07;;;;;;;2.50;2.30;;;19.70;99.90;;;;;;5074851;28;20175;-79
2022/07/25 02:47:32;;;;;;;2.50;1.40;;;19.70;1.00;;;;;;5075266;28;20200;-80
2022/07/25 02:49:58;;;;;;;2.10;1.47;;;19.70;1.00;;;;;;5075237;28;20431;-80
2022/07/25 02:52:23;;;;;;;1.97;1.30;;;19.60;1.00;;;;;;5075093;28;20180;-80
2022/07/25 02:54:49;;;;;;;2.30;2.03;;;19.60;1.00;;;;;;5074986;28;20278;-80
2022/07/25 02:57:15;;;;;;;2.00;1.10;;;19.60;1.00;;;;;;5074228;28;20174;-80
2022/07/25 02:59:41;;;;;;;3.33;1.47;;;19.60;1.00;;;;;;5074926;28;20175;-80
2022/07/25 03:02:06;;;;;;;2.17;1.37;;;19.50;1.00;;;;;;5074866;28;20256;-80
2022/07/25 03:04:32;;;;;;;4.23;1.27;;;19.40;1.00;;;;;;5074896;28;20654;-80
2022/07/25 03:06:57;;;;;;;2.20;1.13;;;19.40;1.00;;;;;;5074857;28;20179;-80
2022/07/25 03:09:23;;;;;;;2.80;1.60;;;19.40;1.00;;;;;;5074782;28;20163;-80
2022/07/25 03:11:50;;;;;;;1.93;1.17;;;19.40;1.00;;;;;;5074384;28;20224;-80
2022/07/25 03:14:16;;;;;;;2.77;1.03;;;19.40;1.00;;;;;;5073439;28;20190;-80
2022/07/25 03:16:41;;;;;;;2.60;0.97;;;19.40;1.00;;;;;;5074505;28;20412;-79
2022/07/25 03:19:09;;;;;;;3.10;1.43;;;19.40;1.00;;;;;;5074652;28;20175;-80
2022/07/25 03:21:38;;;;;;;1.70;0.90;;;19.30;14.50;;;;;;5074514;28;20205;-80
2022/07/25 03:24:04;;;;;;;1.57;0.60;;;19.30;1.00;;;;;;5073174;28;21022;-80
2022/07/25 03:26:29;;;;;;;1.40;0.83;;;19.30;1.00;;;;;;5073984;28;20443;-79
2022/07/25 03:28:55;;;;;;;1.77;0.87;;;19.30;1.00;;;;;;5073101;28;20257;-80
2022/07/25 03:31:20;;;;;;;2.03;1.10;;;19.30;1.00;;;;;;5074330;28;20166;-80
2022/07/25 03:33:46;;;;;;;1.73;1.13;;;19.30;99.90;;;;;;5074284;28;20230;-79
2022/07/25 03:36:11;;;;;;;1.63;0.63;;;19.30;1.00;;;;;;5074261;28;20171;-79
2022/07/25 03:38:37;;;;;;;1.80;0.73;;;19.20;99.90;;;;;;5074212;28;20504;-79
2022/07/25 03:41:03;;;;;;;2.03;0.67;;;19.30;99.90;;;;;;5073775;28;20192;-78
2022/07/25 03:43:30;;;;;;;1.90;1.33;;;19.20;99.90;;;;;;5074122;28;20426;-79
2022/07/25 03:45:55;;;;;;;1.43;0.60;;;19.30;99.90;;;;;;5074010;28;20249;-80
2022/07/25 03:48:21;;;;;;;1.40;1.10;;;19.20;99.90;;;;;;5074078;28;20510;-82
2022/07/25 03:50:46;;;;;;;2.03;0.70;;;19.30;99.90;;;;;;5074115;28;20171;-82
2022/07/25 03:53:12;;;;;;;2.30;0.93;;;19.20;99.90;;;;;;5073975;28;20665;-81
2022/07/25 03:55:38;;;;;;;2.53;1.30;;;19.20;99.90;;;;;;5073537;28;20249;-80
2022/07/25 03:58:04;;;;;;;3.20;1.10;;;19.20;99.90;;;;;;5073546;28;20179;-80
2022/07/25 04:00:29;;;;;;;1.90;1.17;;;19.20;82.70;;;;;;5073719;28;20496;-82
2022/07/25 04:02:55;;;;;;;1.53;0.77;;;19.20;78.80;;;;;;5073662;28;20674;-81
2022/07/25 04:05:20;;;;;;;1.27;0.70;;;19.30;1.00;;;;;;5073721;28;20184;-83
2022/07/25 04:07:46;;;;;;;2.63;0.83;;;19.30;1.00;;;;;;5073730;28;20179;-84
2022/07/25 04:10:11;;;;;;;2.10;1.30;;;19.30;1.00;;;;;;5073709;28;20173;-82
2022/07/25 04:12:37;;;;;;;1.63;0.70;;;19.30;1.00;;;;;;5073270;28;20179;-83
2022/07/25 04:15:03;;;;;;;1.70;0.90;;;19.40;1.00;;;;;;5073488;28;20170;-83
2022/07/25 04:17:29;;;;;;;2.37;1.33;;;19.40;99.90;;;;;;5073548;28;20546;-82
2022/07/25 04:19:54;;;;;;;1.30;0.80;;;19.30;99.90;;;;;;5073504;28;20414;-80
2022/07/25 04:22:21;;;;;;;2.60;1.20;;;19.40;99.90;;;;;;5073164;28;20221;-82
2022/07/25 04:24:46;;;;;;;1.87;0.57;;;19.40;1.00;;;;;;5073402;28;20182;-82
2022/07/25 04:27:12;;;;;;;1.40;0.63;;;19.40;99.90;;;;;;5073070;28;20477;-83
2022/07/25 04:29:37;;;;;;;1.23;1.13;;;19.40;1.00;;;;;;5073261;28;20646;-80
2022/07/25 04:32:31;;;;;;;1.60;1.10;;;19.40;1.00;;;;;;5131652;27;20278;-83
2022/07/25 04:34:56;;;;;;;2.00;1.30;;;19.50;99.90;;;;;;5131320;27;20407;-82
2022/07/25 04:37:22;;;;;;;2.43;1.00;;;19.50;99.90;;;;;;5131337;27;20265;-81
2022/07/25 04:39:47;;;;;;;2.47;0.70;;;19.50;99.90;;;;;;5130038;27;20178;-82
2022/07/25 04:42:13;;;;;;;2.30;0.60;;;19.50;99.90;;;;;;5130878;27;20178;-81
2022/07/25 04:44:38;;;;;;;1.50;1.00;;;19.60;99.90;;;;;;5131131;27;20177;-81
2022/07/25 04:47:04;;;;;;;1.70;0.80;;;19.60;99.90;;;;;;5131034;27;20169;-83
2022/07/25 04:49:29;;;;;;;1.43;0.70;;;19.60;1.00;;;;;;5129580;28;20192;-82
2022/07/25 04:51:55;;;;;;;3.43;0.70;;;19.60;1.00;;;;;;5130927;27;20241;-81
2022/07/25 04:54:20;;;;;;;2.77;0.90;;;19.70;99.90;;;;;;5131031;27;20173;-80
2022/07/25 04:56:46;;;;;;;1.43;0.40;;;19.70;1.00;;;;;;5130629;27;20185;-83
2022/07/25 04:59:11;;;;;;;1.30;0.50;;;19.80;99.90;;;;;;5130912;27;20174;-83
2022/07/25 05:01:36;;;;;;;1.97;0.80;;;19.90;1.00;;;;;;5130842;27;20169;-83
2022/07/25 05:04:02;;;;;;;1.57;0.60;;;19.90;76.30;;;;;;5130710;27;20180;-81
2022/07/25 05:06:27;;;;;;;1.73;0.73;;;20.00;1.00;;;;;;5130599;27;20279;-84
2022/07/25 05:08:53;;;;;;;1.77;0.87;;;20.10;1.00;;;;;;5130575;27;20163;-83
2022/07/25 05:11:19;;;;;;;1.67;0.70;;;20.20;1.00;;;;;;5128949;27;20217;-83
2022/07/25 05:13:44;;;;;;;1.53;1.13;;;20.30;1.00;;;;;;5129345;27;20193;-83
2022/07/25 05:16:10;;;;;;;1.37;0.80;;;20.40;99.90;;;;;;5129174;28;20315;-82
2022/07/25 05:18:35;;;;;;;1.77;0.73;;;20.50;99.90;;;;;;5130498;27;20174;-83
2022/07/25 05:21:00;;;;;;;2.07;1.17;;;20.60;99.90;;;;;;5130362;27;20177;-83
2022/07/25 05:23:26;;;;;;;2.00;0.80;;;20.60;87.80;;;;;;5130398;27;20263;-82
2022/07/25 05:25:51;;;;;;;0.90;0.60;;;20.80;48.90;;;;;;5129930;27;20174;-85
2022/07/25 05:28:17;;;;;;;3.23;0.70;;;20.90;1.00;;;;;;5130349;27;20246;-86
2022/07/25 05:30:43;;;;;;;1.60;1.10;;;20.90;1.00;;;;;;5130012;27;20225;-85
2022/07/25 05:33:08;;;;;;;1.30;0.80;;;20.80;12.20;;;;;;5130215;27;20177;-85
2022/07/25 05:35:34;;;;;;;2.10;1.00;;;20.90;99.90;;;;;;5128773;27;20170;-86
2022/07/25 05:37:59;;;;;;;1.80;1.13;;;20.90;99.90;;;;;;5130004;27;20634;-85
2022/07/25 05:40:25;;;;;;;1.40;0.70;;;21.00;99.90;;;;;;5130086;27;20219;-84
2022/07/25 05:42:50;;;;;;;1.53;0.73;;;21.10;44.00;;;;;;5120515;27;20172;-84
2022/07/25 05:45:16;;;;;;;1.83;0.93;;;21.30;99.90;;;;;;5116253;28;20175;-84
2022/07/25 05:47:41;;;;;;;2.90;0.87;;;21.40;1.00;;;;;;5116366;28;20172;-84
2022/07/25 05:50:07;;;;;;;1.83;0.83;;;21.60;1.00;;;;;;5116121;28;20170;-83
2022/07/25 05:52:32;;;;;;;1.63;0.87;;;21.90;1.00;;;;;;5116141;28;20215;-83
2022/07/25 05:54:58;;;;;;;0.90;0.63;;;22.10;1.00;;;;;;5115970;27;20409;-82
2022/07/25 05:57:23;;;;;;;2.20;0.80;;;22.20;1.00;;;;;;5115704;28;20187;-83
2022/07/25 05:59:49;;;;;;;2.43;1.17;;;22.80;99.90;;;;;;5115930;28;20214;-84
2022/07/25 06:02:14;;;;;;;1.63;0.70;;;22.90;99.90;;;;;;5115564;28;20706;-84
2022/07/25 06:04:40;;;;;;;0.90;0.40;;;23.00;99.90;;;;;;5115902;28;20709;-84
2022/07/25 06:07:06;;;;;;;1.27;0.40;;;23.30;99.90;;;;;;5114600;28;20660;-84
2022/07/25 06:09:31;;;;;;;2.10;0.90;;;22.90;99.90;;;;;;5115807;28;20172;-85
2022/07/25 06:11:57;;;;;;;1.00;0.77;;;23.30;99.90;;;;;;5115311;28;20304;-86
2022/07/25 06:14:22;;;;;;;1.47;0.83;;;23.50;99.90;;;;;;5115852;28;20176;-82
2022/07/25 06:16:48;;;;;;;3.43;1.33;;;23.50;99.90;;;;;;5115461;28;20177;-82
2022/07/25 06:19:13;;;;;;;0.80;0.60;;;23.70;99.90;;;;;;5114238;28;20176;-82
2022/07/25 06:21:39;;;;;;;1.57;0.63;;;23.50;99.90;;;;;;5115657;28;20226;-82
2022/07/25 06:24:04;;;;;;;1.43;0.57;;;23.70;99.90;;;;;;5115539;28;20178;-82
2022/07/25 06:26:30;;;;;;;1.73;0.60;;;23.80;99.90;;;;;;5115069;28;20169;-82
2022/07/25 06:28:56;;;;;;;1.80;1.00;;;23.80;99.90;;;;;;5115380;27;20238;-83
2022/07/25 06:31:21;;;;;;;1.13;0.60;;;23.80;99.90;;;;;;5113994;28;20258;-85
2022/07/25 06:33:47;;;;;;;1.97;1.13;;;24.10;99.90;;;;;;5115510;27;20230;-83
2022/07/25 06:36:12;;;;;;;2.00;0.70;;;24.60;99.90;;;;;;5115461;28;20170;-85
2022/07/25 06:38:38;;;;;;;1.50;0.73;;;24.80;85.50;;;;;;5115439;28;20690;-84
2022/07/25 06:41:03;;;;;;;1.20;0.67;;;24.90;82.90;;;;;;5113561;28;20261;-84
2022/07/25 06:43:29;;;;;;;1.33;0.93;;;25.40;49.90;;;;;;5115188;28;20220;-84
2022/07/25 06:45:54;;;;;;;2.13;0.90;;;24.80;45.00;;;;;;5115160;28;20245;-81
2022/07/25 06:48:20;;;;;;;1.27;0.70;;;25.20;58.70;;;;;;5115145;28;20265;-81
2022/07/25 06:50:45;;;;;;;4.20;1.43;;;25.80;30.40;;;;;;5115065;28;20631;-82
2022/07/25 06:53:11;;;;;;;1.20;0.67;;;26.60;12.20;;;;;;5096574;27;20291;-81
2022/07/25 06:55:37;;;;;;;1.37;1.10;;;28.10;1.00;;;;;;5114130;28;20172;-81
2022/07/25 06:58:02;;;;;;;1.90;1.30;;;29.40;1.00;;;;;;5114890;27;20171;-81
2022/07/25 07:00:28;;;;;;;2.17;1.10;;;29.40;1.00;;;;;;5114454;28;20180;-80
2022/07/25 07:03:00;;;;;;;2.97;2.40;;;30.50;1.00;;;;;;5112156;28;20224;-80
2022/07/25 07:05:28;;;;;;;2.33;1.13;;;31.30;1.00;;;;;;5114787;28;20164;-82
2022/07/25 07:07:55;;;;;;;1.77;1.23;;;31.10;1.00;;;;;;5114658;28;20416;-81
2022/07/25 07:10:21;;;;;;;1.93;1.33;;;29.50;1.00;;;;;;5114083;28;20445;-81
2022/07/25 07:12:47;;;;;;;1.80;1.03;;;28.50;1.00;;;;;;5113337;28;20428;-82
2022/07/25 07:15:13;;;;;;;1.90;1.70;;;27.40;1.00;;;;;;5114583;28;20856;-80
2022/07/25 07:17:39;;;;;;;2.37;1.30;;;26.70;1.00;;;;;;5114507;28;20449;-82
2022/07/25 07:20:06;;;;;;;1.97;1.33;;;27.10;1.00;;;;;;5114510;28;20194;-80
2022/07/25 07:22:41;;;;;;;1.90;1.53;;;28.50;1.00;;;;;;5113207;28;20182;-80
2022/07/25 07:25:07;;;;;;;1.30;1.17;;;30.20;1.00;;;;;;5114351;28;20749;-81
2022/07/25 07:27:32;;;;;;;3.20;1.90;;;30.50;1.00;;;;;;5114068;28;20409;-81
2022/07/25 07:29:58;;;;;;;2.03;1.57;;;30.20;1.00;;;;;;5113928;28;20293;-81
2022/07/25 07:32:23;;;;;;;2.13;1.90;;;31.10;1.00;;;;;;5113130;28;20209;-81
2022/07/25 07:34:49;;;;;;;2.00;1.27;;;31.20;1.00;;;;;;5114183;28;20204;-81
2022/07/25 07:37:14;;;;;;;1.90;1.53;;;31.20;1.00;;;;;;5114101;28;20700;-81
2022/07/25 07:39:40;;;;;;;1.93;1.60;;;30.80;1.00;;;;;;5114139;28;20172;-81
2022/07/25 07:42:06;;;;;;;4.00;1.57;;;31.00;1.00;;;;;;5113736;28;20258;-81
2022/07/25 07:44:31;;;;;;;2.27;1.90;;;31.30;1.00;;;;;;5114031;28;20171;-81
2022/07/25 07:47:01;;;;;;;2.87;1.93;;;31.00;1.00;;;;;;5114025;28;20194;-82
2022/07/25 07:49:27;;;;;;;2.23;1.50;;;30.50;1.00;;;;;;5113853;28;20632;-82
2022/07/25 07:51:52;;;;;;;3.50;2.10;;;31.70;1.00;;;;;;5112654;28;20473;-81
2022/07/25 07:57:02;;;;;;;2.27;2.00;;;32.10;1.00;;;;;;5113702;28;20179;-83
2022/07/25 07:59:27;;;;;;;6.20;2.60;;;32.40;1.00;;;;;;5113662;28;20402;-82
2022/07/25 08:01:52;;;;;;;2.90;2.57;;;33.00;1.00;;;;;;5113747;28;20159;-82
2022/07/25 08:04:18;;;;;;;2.97;2.43;;;32.70;1.00;;;;;;5113740;28;20178;-81
2022/07/25 08:06:43;;;;;;;2.50;2.30;;;32.10;1.00;;;;;;5112303;28;20228;-83
2022/07/25 08:09:09;;;;;;;2.70;2.30;;;32.00;1.00;;;;;;5112406;28;20266;-81
2022/07/25 08:11:35;;;;;;;2.17;1.70;;;32.10;1.00;;;;;;5113175;28;20257;-81
2022/07/25 08:14:00;;;;;;;1.83;1.47;;;32.10;1.00;;;;;;5113557;28;20171;-81
2022/07/25 08:16:26;;;;;;;1.83;1.60;;;33.80;1.00;;;;;;5113572;28;20182;-82
2022/07/25 08:18:51;;;;;;;3.33;3.03;;;33.40;1.00;;;;;;5113504;28;20164;-82
2022/07/25 08:21:17;;;;;;;2.43;2.07;;;32.40;1.00;;;;;;5113553;28;20171;-82
2022/07/25 08:23:45;;;;;;;2.47;2.20;;;32.00;1.00;;;;;;5113494;28;20167;-81
2022/07/25 08:26:13;;;;;;;3.20;2.10;;;32.50;1.00;;;;;;5113016;28;20606;-81
2022/07/25 08:28:38;;;;;;;3.20;2.23;;;33.40;1.00;;;;;;5113416;28;20409;-82
2022/07/25 08:31:04;;;;;;;4.00;2.70;;;33.60;1.00;;;;;;5113041;28;20461;-82
2022/07/25 08:33:30;;;;;;;3.30;2.20;;;34.10;1.00;;;;;;5112145;28;20182;-83
2022/07/25 08:35:57;;;;;;;3.50;1.97;;;35.00;1.00;;;;;;5113261;28;20266;-81
2022/07/25 08:38:24;;;;;;;2.90;2.43;;;35.00;1.00;;;;;;5113307;28;20417;-82
2022/07/25 08:40:50;;;;;;;2.67;2.00;;;34.60;1.00;;;;;;5112898;28;20551;-81
2022/07/25 08:43:17;;;;;;;2.13;1.93;;;34.40;1.00;;;;;;5113240;28;20421;-82
2022/07/25 08:45:48;;;;;;;2.70;2.50;;;33.90;1.00;;;;;;5113232;28;20402;-82
2022/07/25 08:48:17;;;;;;;3.80;2.80;;;33.20;1.00;;;;;;5113179;28;20935;-81
2022/07/25 08:50:44;;;;;;;2.83;2.53;;;33.90;1.00;;;;;;5113142;28;20464;-82
2022/07/25 08:53:10;;;;;;;2.43;2.23;;;33.40;1.00;;;;;;5113076;28;20402;-82
2022/07/25 08:55:36;;;;;;;2.73;2.50;;;33.30;1.00;;;;;;5112893;28;20515;-87
2022/07/25 08:58:01;;;;;;;4.00;2.37;;;34.10;1.00;;;;;;5113648;28;20164;-89
2022/07/25 09:00:27;;;;;;;2.30;2.10;;;33.90;1.00;;;;;;5111712;28;20258;-84
2022/07/25 09:02:55;;;;;;;2.10;1.80;;;34.40;1.00;;;;;;5113460;28;20208;-84
2022/07/25 09:05:22;;;;;;;3.03;1.80;;;35.10;1.00;;;;;;5113082;28;20775;-84
2022/07/25 09:07:48;;;;;;;2.30;2.10;;;35.90;1.00;;;;;;5113025;28;20836;-83
2022/07/25 09:10:19;;;;;;;2.43;2.23;;;36.20;1.00;;;;;;5112548;28;20508;-83
2022/07/25 09:12:58;;;;;;;2.77;2.57;;;36.60;1.00;;;;;;5111716;28;20207;-84
2022/07/25 09:15:26;;;;;;;2.60;2.20;;;37.50;1.00;;;;;;5112927;28;20941;-84
2022/07/25 09:17:53;;;;;;;2.30;2.10;;;35.30;1.00;;;;;;5114721;28;20413;-84
2022/07/25 09:20:20;;;;;;;2.73;2.53;;;34.60;1.00;;;;;;5116816;28;20737;-84
2022/07/25 09:22:46;;;;;;;2.53;2.33;;;35.10;1.00;;;;;;5116666;28;20466;-84
2022/07/25 09:25:20;;;;;;;4.03;2.23;;;35.20;1.00;;;;;;5116342;28;20401;-84
2022/07/25 09:27:45;;;;;;;2.60;2.40;;;34.40;1.00;;;;;;5116906;28;20162;-82
2022/07/25 09:30:15;;;;;;;2.50;2.30;;;33.30;1.00;;;;;;5116458;28;20961;-91
2022/07/25 09:32:40;;;;;;;2.10;1.90;;;32.80;1.00;;;;;;5116037;28;20176;-85
2022/07/25 09:35:06;;;;;;;2.40;2.20;;;33.50;1.00;;;;;;5115160;28;20424;-84
2022/07/25 09:37:32;;;;;;;2.40;2.20;;;34.20;1.00;;;;;;5116418;28;20183;-83
2022/07/25 09:39:57;;;;;;;2.47;2.27;;;34.90;1.00;;;;;;5115997;28;20250;-84
2022/07/25 09:42:31;;;;;;;3.07;2.03;;;35.20;1.00;;;;;;5116511;28;20171;-84
2022/07/25 09:45:10;;;;;;;2.50;2.30;;;35.50;1.00;;;;;;5116514;28;20186;-83
2022/07/25 09:47:38;;;;;;;2.87;2.03;;;36.00;1.00;;;;;;5116330;28;20906;-81
2022/07/25 09:50:05;;;;;;;2.47;2.27;;;35.70;1.00;;;;;;5116269;27;20414;-82
2022/07/25 09:52:32;;;;;;;2.70;2.17;;;35.70;1.00;;;;;;5114845;28;20429;-85
2022/07/25 09:55:01;;;;;;;3.00;2.50;;;35.60;1.00;;;;;;5115887;28;20402;-83
2022/07/25 09:57:26;;;;;;;2.80;2.60;;;35.00;1.00;;;;;;5116103;28;20767;-83
2022/07/25 09:59:52;;;;;;;2.50;2.37;;;35.10;1.00;;;;;;5116089;28;20412;-82
2022/07/25 10:02:27;;;;;;;2.00;1.90;;;35.40;1.00;;;;;;5116061;28;20202;-83
2022/07/25 10:05:08;;;;;;;2.73;2.50;;;36.10;1.00;;;;;;5116058;28;20167;-82
2022/07/25 10:07:37;;;;;;;2.20;2.10;;;36.10;1.00;;;;;;5115908;28;20454;-83
2022/07/25 10:10:03;;;;;;;2.60;2.40;;;36.20;1.00;;;;;;5114152;28;20475;-84
2022/07/25 10:12:28;;;;;;;2.57;2.30;;;35.60;1.00;;;;;;5115589;28;20430;-83
2022/07/25 10:15:11;;;;;;;3.23;2.13;;;35.90;1.00;;;;;;5115644;27;20171;-82
2022/07/25 10:17:38;;;;;;;2.50;2.30;;;35.50;1.00;;;;;;5115803;28;20164;-82
2022/07/25 10:20:09;;;;;;;2.30;2.00;;;35.00;1.00;;;;;;5115646;28;20413;-82
2022/07/25 10:22:36;;;;;;;3.20;2.30;;;34.60;1.00;;;;;;5115756;28;20467;-82
2022/07/25 10:25:12;;;;;;;2.70;2.27;;;34.10;1.00;;;;;;5115318;28;20436;-82
2022/07/25 10:27:50;;;;;;;2.43;2.23;;;34.00;1.00;;;;;;5115598;28;20417;-82
2022/07/25 10:30:22;;;;;;;2.97;2.57;;;33.90;1.00;;;;;;5115288;28;20484;-83
2022/07/25 10:32:56;;;;;;;2.30;1.83;;;33.90;1.00;;;;;;5115427;28;20424;-83
2022/07/25 10:35:22;;;;;;;2.63;2.43;;;33.40;1.00;;;;;;5114912;28;20908;-82
2022/07/25 10:37:51;;;;;;;2.10;1.90;;;33.30;1.00;;;;;;5113971;28;20414;-83
2022/07/25 10:40:39;;;;;;;2.80;2.50;;;33.30;1.00;;;;;;5113705;28;20402;-82
2022/07/25 10:43:04;;;;;;;2.50;2.30;;;33.50;1.00;;;;;;5112543;28;20963;-83
2022/07/25 10:45:47;;;;;;;2.40;2.17;;;33.60;1.00;;;;;;5113924;28;20484;-83
2022/07/25 10:48:30;;;;;;;3.03;2.73;;;33.30;1.00;;;;;;5113781;28;20168;-83
2022/07/25 10:51:00;;;;;;;3.67;2.93;;;33.40;1.00;;;;;;5111170;28;21045;-83
2022/07/25 10:53:37;;;;;;;2.93;2.57;;;33.80;1.00;;;;;;5112328;28;20510;-82
2022/07/25 10:56:06;;;;;;;2.83;2.53;;;34.00;1.00;;;;;;5112772;28;20421;-83
2022/07/25 10:58:52;;;;;;;2.40;2.20;;;33.90;1.00;;;;;;5114902;28;20946;-83
2022/07/25 11:01:26;;;;;;;2.87;2.60;;;33.40;1.00;;;;;;5114894;28;20443;-82
2022/07/25 11:03:58;;;;;;;2.07;1.83;;;33.30;1.00;;;;;;5114852;28;20414;-82
2022/07/25 11:06:32;;;;;;;2.43;2.23;;;33.20;1.00;;;;;;5114727;28;20945;-82
2022/07/25 11:09:00;;;;;;;2.33;1.70;;;33.20;1.00;;;;;;5114813;28;20436;-82
2022/07/25 11:11:37;;;;;;;3.43;3.13;;;32.90;1.00;;;;;;5113082;28;20540;-82
2022/07/25 11:14:04;;;;;;;4.00;2.47;;;32.60;1.00;;;;;;5111957;28;20937;-81
2022/07/25 11:16:30;;;;;;;2.40;2.20;;;32.20;1.00;;;;;;5113037;28;20515;-82
2022/07/25 11:18:56;;;;;;;2.47;2.00;;;32.10;1.00;;;;;;5112943;28;20821;-82
2022/07/25 11:21:21;;;;;;;2.50;2.30;;;31.90;1.00;;;;;;5112308;28;20176;-81
2022/07/25 11:23:53;;;;;;;2.90;2.07;;;31.90;1.00;;;;;;5113111;28;20179;-82
2022/07/25 11:26:19;;;;;;;2.70;2.50;;;31.70;1.00;;;;;;5112885;28;20608;-82
2022/07/25 11:28:47;;;;;;;3.70;2.43;;;31.70;1.00;;;;;;5112467;28;20457;-82
2022/07/25 11:31:15;;;;;;;3.13;2.23;;;31.80;1.00;;;;;;5114030;28;20222;-82
2022/07/25 11:33:44;;;;;;;3.60;3.17;;;31.90;1.00;;;;;;5114281;28;20414;-81
2022/07/25 11:36:10;;;;;;;2.50;2.30;;;31.80;1.00;;;;;;5114127;28;20418;-81
2022/07/25 11:38:37;;;;;;;2.40;2.20;;;31.90;1.00;;;;;;5114151;28;20791;-82
2022/07/25 11:41:03;;;;;;;3.97;2.63;;;31.90;1.00;;;;;;5113168;28;20566;-82
2022/07/25 11:43:29;;;;;;;2.87;2.57;;;32.00;1.00;;;;;;5113940;28;21019;-83
2022/07/25 11:45:57;;;;;;;2.57;2.37;;;32.10;1.00;;;;;;5113939;28;20406;-83
2022/07/25 11:48:30;;;;;;;2.20;2.00;;;32.50;1.00;;;;;;5113846;28;20175;-82
2022/07/25 11:50:55;;;;;;;3.10;2.00;;;33.20;1.00;;;;;;5113911;28;20465;-83
2022/07/25 11:53:21;;;;;;;3.10;2.50;;;34.10;1.00;;;;;;5113860;28;20924;-83
2022/07/25 11:55:46;;;;;;;2.30;2.10;;;34.60;1.00;;;;;;5113515;28;20635;-81
2022/07/25 11:58:13;;;;;;;2.07;1.63;;;35.20;1.00;;;;;;5113851;28;20167;-82
2022/07/25 12:00:43;;;;;;;2.80;2.47;;;35.20;1.00;;;;;;5113700;28;20179;-82
2022/07/25 12:03:14;;;;;;;2.60;2.40;;;34.30;1.00;;;;;;5112518;28;20453;-81
2022/07/25 12:05:40;;;;;;;2.40;2.20;;;34.10;1.00;;;;;;5112374;28;20422;-82
2022/07/25 12:08:15;;;;;;;3.80;2.63;;;34.70;1.00;;;;;;5113613;28;20409;-82
2022/07/25 12:10:46;;;;;;;2.20;2.00;;;34.20;1.00;;;;;;5113149;28;20191;-82
2022/07/25 12:13:22;;;;;;;2.17;1.97;;;33.80;1.00;;;;;;5112290;28;20421;-81
2022/07/25 12:15:47;;;;;;;3.20;2.37;;;33.60;1.00;;;;;;5113587;28;20412;-81
2022/07/25 12:18:13;;;;;;;3.10;2.23;;;33.60;1.00;;;;;;5113457;28;20414;-82
2022/07/25 12:20:41;;;;;;;2.10;2.00;;;34.10;1.00;;;;;;5113534;28;20172;-82
2022/07/25 12:23:09;;;;;;;2.07;1.87;;;34.40;1.00;;;;;;5112128;28;20266;-83
2022/07/25 12:25:37;;;;;;;2.97;2.33;;;34.70;1.00;;;;;;5113125;28;20417;-84
2022/07/25 12:28:03;;;;;;;2.40;2.20;;;35.70;1.00;;;;;;5113460;28;20410;-82
2022/07/25 12:30:30;;;;;;;2.30;1.90;;;36.10;1.00;;;;;;5113097;28;20496;-81
2022/07/25 12:32:57;;;;;;;2.23;2.03;;;35.80;1.00;;;;;;5113361;28;20783;-81
2022/07/25 12:35:22;;;;;;;2.30;2.13;;;35.20;1.00;;;;;;5113435;28;20420;-83
2022/07/25 12:37:48;;;;;;;2.70;2.50;;;35.40;1.00;;;;;;5113348;28;20779;-83
2022/07/25 12:40:15;;;;;;;2.07;1.90;;;36.20;1.00;;;;;;5112973;28;20172;-84
2022/07/25 12:42:40;;;;;;;2.07;1.87;;;35.80;1.00;;;;;;5113397;28;20171;-82
2022/07/25 12:45:07;;;;;;;2.27;2.07;;;34.80;1.00;;;;;;5113299;28;20910;-83
2022/07/25 12:47:33;;;;;;;2.27;2.07;;;35.20;1.00;;;;;;5113321;28;20175;-82
2022/07/25 12:49:58;;;;;;;2.40;2.20;;;35.10;1.00;;;;;;5113308;28;20416;-81
2022/07/25 12:52:24;;;;;;;2.70;2.50;;;35.00;1.00;;;;;;5114016;28;20660;-84
2022/07/25 12:54:49;;;;;;;2.93;2.10;;;34.80;1.00;;;;;;5114593;28;20800;-83
2022/07/25 12:57:15;;;;;;;2.97;2.60;;;34.40;1.00;;;;;;5116117;28;20172;-83